createdAt,value
2018-02-21T00:01:53.681Z,20.70
2018-02-21T00:04:22.619Z,20.69
2018-02-21T00:06:51.673Z,20.67
2018-02-21T00:09:20.889Z,20.65
2018-02-21T00:11:49.019Z,20.64
2018-02-21T00:14:17.524Z,20.64
2018-02-21T00:16:46.790Z,20.60
2018-02-21T00:19:15.668Z,20.58
2018-02-21T00:21:44.692Z,20.61
2018-02-21T00:24:13.623Z,20.63
2018-02-21T00:26:42.627Z,20.69
2018-02-21T00:29:11.700Z,20.68
2018-02-21T00:31:40.684Z,20.69
2018-02-21T00:34:09.808Z,20.64
2018-02-21T00:36:38.711Z,20.62
2018-02-21T00:39:07.710Z,20.64
2018-02-21T00:41:36.807Z,20.59
2018-02-21T00:45:14.492Z,20.55
2018-02-21T00:47:43.707Z,20.50
2018-02-21T00:50:12.651Z,20.49
2018-02-21T00:53:12.541Z,20.49
2018-02-21T00:55:41.542Z,20.54
2018-02-21T00:58:10.785Z,20.59
2018-02-21T01:00:39.771Z,20.67
2018-02-21T01:03:08.864Z,20.69
2018-02-21T01:05:38.169Z,20.68
2018-02-21T01:08:07.054Z,20.71
2018-02-21T01:13:10.372Z,20.71
2018-02-21T01:15:39.675Z,20.67
2018-02-21T01:18:08.700Z,20.64
2018-02-21T01:22:26.337Z,20.63
2018-02-21T01:24:55.805Z,20.62
2018-02-21T01:28:44.680Z,20.63
2018-02-21T01:32:11.827Z,20.63
2018-02-21T01:34:40.780Z,20.59
2018-02-21T01:37:09.725Z,20.58
2018-02-21T01:39:38.652Z,20.56
2018-02-21T01:42:07.736Z,20.52
2018-02-21T01:44:36.659Z,20.52
2018-02-21T01:47:05.771Z,20.53
2018-02-21T01:49:34.692Z,20.47
2018-02-21T01:52:03.784Z,20.44
2018-02-21T01:54:33.329Z,20.48
2018-02-21T01:57:02.530Z,20.52
2018-02-21T02:01:51.676Z,20.59
2018-02-21T02:04:20.668Z,20.65
2018-02-21T02:06:49.657Z,20.58
2018-02-21T02:09:18.667Z,20.57
2018-02-21T02:11:47.700Z,20.59
2018-02-21T02:16:14.778Z,20.65
2018-02-21T02:18:43.680Z,20.64
2018-02-21T02:21:12.692Z,20.69
2018-02-21T02:23:41.667Z,20.74
2018-02-21T02:29:06.532Z,20.69
2018-02-21T02:31:35.768Z,20.70
2018-02-21T02:34:04.706Z,20.71
2018-02-21T02:36:34.434Z,20.67
2018-02-21T02:41:47.671Z,20.63
2018-02-21T02:44:16.687Z,20.61
2018-02-21T02:46:45.708Z,20.61
2018-02-21T02:49:14.872Z,20.63
2018-02-21T02:51:43.795Z,20.60
2018-02-21T02:54:12.758Z,20.62
2018-02-21T02:56:42.066Z,20.64
2018-02-21T03:00:47.895Z,20.58
2018-02-21T03:03:16.012Z,20.60
2018-02-21T03:05:44.670Z,20.62
2018-02-21T03:09:30.684Z,20.64
2018-02-21T03:20:26.756Z,20.70
2018-02-21T03:28:12.790Z,20.66
2018-02-21T03:33:00.201Z,20.54
2018-02-21T03:35:29.335Z,20.52
2018-02-21T03:37:58.606Z,20.50
2018-02-21T03:40:27.643Z,20.50
2018-02-21T03:42:56.705Z,20.50
2018-02-21T03:45:25.762Z,20.47
2018-02-21T03:47:54.797Z,20.49
2018-02-21T03:50:23.775Z,20.51
2018-02-21T03:52:52.692Z,20.53
2018-02-21T03:55:21.605Z,20.55
2018-02-21T03:57:50.871Z,20.51
2018-02-21T04:00:19.665Z,20.55
2018-02-21T04:02:48.872Z,20.59
2018-02-21T04:05:17.783Z,20.65
2018-02-21T04:07:46.647Z,20.64
2018-02-21T04:11:20.674Z,20.70
2018-02-21T04:13:49.688Z,20.71
2018-02-21T04:16:18.774Z,20.73
2018-02-21T04:18:47.639Z,20.79
2018-02-21T04:21:16.787Z,20.75
2018-02-21T04:23:45.716Z,20.73
2018-02-21T04:26:14.760Z,20.68
2018-02-21T04:28:43.721Z,20.63
2018-02-21T04:32:00.729Z,20.57
2018-02-21T04:34:30.107Z,20.53
2018-02-21T04:36:59.668Z,20.54
2018-02-21T04:40:29.663Z,20.49
2018-02-21T04:42:58.643Z,20.47
2018-02-21T04:45:27.765Z,20.48
2018-02-21T04:47:56.753Z,20.49
2018-02-21T04:52:44.347Z,20.57
2018-02-21T04:55:14.704Z,20.47
2018-02-21T04:57:49.576Z,20.47
2018-02-21T05:00:19.643Z,20.44
2018-02-21T05:02:48.688Z,20.47
2018-02-21T05:05:17.627Z,20.51
2018-02-21T05:07:46.629Z,20.58
2018-02-21T05:10:15.886Z,20.61
2018-02-21T05:12:44.863Z,20.66
2018-02-21T05:15:13.707Z,20.63
2018-02-21T05:17:42.615Z,20.66
2018-02-21T05:20:11.697Z,20.66
2018-02-21T05:22:40.802Z,20.60
2018-02-21T05:25:09.709Z,20.56
2018-02-21T05:27:38.780Z,20.55
2018-02-21T05:30:07.779Z,20.51
2018-02-21T05:32:36.649Z,20.48
2018-02-21T05:35:05.631Z,20.50
2018-02-21T05:37:34.617Z,20.52
2018-02-21T05:40:03.697Z,20.57
2018-02-21T05:42:32.654Z,20.62
2018-02-21T05:45:01.696Z,20.58
2018-02-21T05:51:34.870Z,20.57
2018-02-21T05:55:30.625Z,20.60
2018-02-21T05:57:58.803Z,20.64
2018-02-21T06:02:15.611Z,20.69
2018-02-21T06:07:08.505Z,20.76
2018-02-21T06:12:22.754Z,20.85
2018-02-21T06:14:51.729Z,20.84
2018-02-21T06:17:20.786Z,20.89
2018-02-21T06:20:32.616Z,20.80
2018-02-21T06:23:01.876Z,20.81
2018-02-21T06:25:30.784Z,20.80
2018-02-21T06:27:59.687Z,20.76
2018-02-21T06:30:28.853Z,20.77
2018-02-21T06:32:57.839Z,20.77
2018-02-21T06:35:26.729Z,20.77
2018-02-21T06:37:55.703Z,20.78
2018-02-21T06:43:03.864Z,20.72
2018-02-21T06:45:32.754Z,20.68
2018-02-21T06:48:01.761Z,20.64
2018-02-21T06:50:30.883Z,20.58
2018-02-21T06:52:59.900Z,20.55
2018-02-21T06:55:28.035Z,20.57
2018-02-21T06:57:57.775Z,20.62
2018-02-21T07:00:26.704Z,20.57
2018-02-21T07:02:56.191Z,20.57
2018-02-21T07:05:25.688Z,20.61
2018-02-21T07:07:54.815Z,20.65
2018-02-21T07:10:23.644Z,20.69
2018-02-21T07:12:52.681Z,20.69
2018-02-21T07:15:24.660Z,20.69
2018-02-21T07:17:53.612Z,20.69
2018-02-21T07:20:22.676Z,20.71
2018-02-21T07:22:51.804Z,20.70
2018-02-21T07:25:20.766Z,20.68
2018-02-21T07:27:49.615Z,20.66
2018-02-21T07:30:18.728Z,20.70
2018-02-21T07:32:47.641Z,20.71
2018-02-21T07:35:16.608Z,20.75
2018-02-21T07:37:45.616Z,20.70
2018-02-21T07:40:14.606Z,20.72
2018-02-21T07:43:09.728Z,20.72
2018-02-21T07:45:38.693Z,20.68
2018-02-21T07:48:07.592Z,20.70
2018-02-21T07:50:36.727Z,20.68
2018-02-21T07:53:05.657Z,20.66
2018-02-21T07:56:12.775Z,20.65
2018-02-21T07:58:41.682Z,20.67
2018-02-21T08:01:10.749Z,20.69
2018-02-21T08:03:39.871Z,20.71
2018-02-21T08:06:08.629Z,20.69
2018-02-21T08:08:37.724Z,20.66
2018-02-21T08:11:07.183Z,20.67
2018-02-21T08:13:36.770Z,20.68
2018-02-21T08:16:05.664Z,20.72
2018-02-21T08:18:34.775Z,20.80
2018-02-21T08:21:03.759Z,20.82
2018-02-21T08:23:32.677Z,20.86
2018-02-21T08:26:01.695Z,20.81
2018-02-21T08:28:30.800Z,20.80
2018-02-21T08:30:59.700Z,20.75
2018-02-21T08:33:28.684Z,20.72
2018-02-21T08:35:58.507Z,20.71
2018-02-21T08:38:27.543Z,20.66
2018-02-21T08:40:56.677Z,20.67
2018-02-21T08:43:25.642Z,20.64
2018-02-21T08:45:54.739Z,20.58
2018-02-21T08:51:05.234Z,20.62
2018-02-21T08:53:53.459Z,20.64
2018-02-21T08:56:22.539Z,20.61
2018-02-21T08:58:51.656Z,20.58
2018-02-21T09:01:20.945Z,20.66
2018-02-21T09:03:49.627Z,20.68
2018-02-21T09:06:18.684Z,20.71
2018-02-21T09:08:47.655Z,20.74
2018-02-21T09:11:16.775Z,20.78
2018-02-21T09:13:45.669Z,20.83
2018-02-21T09:16:14.656Z,20.83
2018-02-21T09:18:43.651Z,20.81
2018-02-21T09:21:13.478Z,20.82
2018-02-21T09:23:42.456Z,20.85
2018-02-21T09:26:11.442Z,20.86
2018-02-21T09:28:40.545Z,20.83
2018-02-21T09:31:10.647Z,20.86
2018-02-21T09:33:39.648Z,20.87
2018-02-21T09:36:08.779Z,20.89
2018-02-21T09:38:37.724Z,20.90
2018-02-21T09:41:06.795Z,20.95
2018-02-21T09:43:35.689Z,20.98
2018-02-21T09:46:04.717Z,20.89
2018-02-21T09:48:33.672Z,20.86
2018-02-21T09:51:02.708Z,20.85
2018-02-21T09:53:31.695Z,20.85
2018-02-21T09:56:00.782Z,20.62
2018-02-21T09:58:29.771Z,20.76
2018-02-21T10:00:59.720Z,20.62
2018-02-21T10:03:28.751Z,20.62
2018-02-21T10:07:56.736Z,20.74
2018-02-21T10:10:25.908Z,20.85
2018-02-21T10:12:54.588Z,20.89
2018-02-21T10:15:23.804Z,20.85
2018-02-21T10:17:52.696Z,20.86
2018-02-21T10:20:21.725Z,20.88
2018-02-21T10:22:50.693Z,20.94
2018-02-21T10:25:19.765Z,21.03
2018-02-21T10:27:48.635Z,20.97
2018-02-21T10:30:17.719Z,20.97
2018-02-21T10:34:10.588Z,20.98
2018-02-21T10:36:39.672Z,20.94
2018-02-21T10:39:08.748Z,21.04
2018-02-21T10:41:37.688Z,20.95
2018-02-21T10:44:06.654Z,20.90
2018-02-21T10:46:35.787Z,20.97
2018-02-21T10:49:04.624Z,20.96
2018-02-21T10:51:33.920Z,20.95
2018-02-21T10:54:02.079Z,20.91
2018-02-21T10:56:31.619Z,20.77
2018-02-21T10:59:01.728Z,20.74
2018-02-21T11:01:30.725Z,20.79
2018-02-21T11:03:59.631Z,20.79
2018-02-21T11:06:29.724Z,20.88
2018-02-21T11:08:58.692Z,20.82
2018-02-21T11:11:27.729Z,20.81
2018-02-21T11:13:56.661Z,20.81
2018-02-21T11:16:25.736Z,20.82
2018-02-21T11:18:54.812Z,20.86
2018-02-21T11:21:23.685Z,20.88
2018-02-21T11:23:52.616Z,20.89
2018-02-21T11:26:21.760Z,20.89
2018-02-21T11:28:50.630Z,20.97
2018-02-21T11:31:19.773Z,20.98
2018-02-21T11:33:48.777Z,21.06
2018-02-21T11:36:17.615Z,21.05
2018-02-21T11:38:46.752Z,21.05
2018-02-21T11:41:15.772Z,20.98
2018-02-21T11:43:44.692Z,20.94
2018-02-21T11:46:13.712Z,20.93
2018-02-21T11:48:42.676Z,20.90
2018-02-21T11:51:11.896Z,20.87
2018-02-21T11:53:40.539Z,21.00
2018-02-21T11:56:09.611Z,21.01
2018-02-21T11:59:30.519Z,21.13
2018-02-21T12:01:59.704Z,21.13
2018-02-21T12:04:28.766Z,21.10
2018-02-21T12:06:57.684Z,21.11
2018-02-21T12:09:26.749Z,21.17
2018-02-21T12:11:55.879Z,21.09
2018-02-21T12:17:10.676Z,21.08
2018-02-21T12:19:39.659Z,21.09
2018-02-21T12:22:08.787Z,21.18
2018-02-21T12:24:37.672Z,21.21
2018-02-21T12:27:06.705Z,21.27
2018-02-21T12:29:35.911Z,21.36
2018-02-21T12:32:04.007Z,21.45
2018-02-21T12:34:32.566Z,21.42
2018-02-21T12:37:01.673Z,21.47
2018-02-21T12:39:34.910Z,21.39
2018-02-21T12:42:05.169Z,21.29
2018-02-21T12:44:36.307Z,21.27
2018-02-21T12:47:05.695Z,21.18
2018-02-21T12:49:34.704Z,21.12
2018-02-21T12:54:43.657Z,21.05
2018-02-21T12:59:30.748Z,21.12
2018-02-21T13:01:59.732Z,21.15
2018-02-21T13:04:28.737Z,21.16
2018-02-21T13:06:57.739Z,21.11
2018-02-21T13:09:26.871Z,21.11
2018-02-21T13:11:55.764Z,21.11
2018-02-21T13:14:26.688Z,21.07
2018-02-21T13:16:55.726Z,21.08
2018-02-21T13:19:24.734Z,21.09
2018-02-21T13:21:54.484Z,21.19
2018-02-21T13:24:23.751Z,21.20
2018-02-21T13:26:52.878Z,21.24
2018-02-21T13:30:01.749Z,21.33
2018-02-21T13:32:30.809Z,21.22
2018-02-21T13:34:59.770Z,21.27
2018-02-21T13:37:28.736Z,21.01
2018-02-21T13:41:56.726Z,20.88
2018-02-21T13:44:25.755Z,20.84
2018-02-21T13:46:55.172Z,20.83
2018-02-21T13:49:24.728Z,20.77
2018-02-21T13:51:53.710Z,20.87
2018-02-21T13:54:22.825Z,20.92
2018-02-21T13:56:51.756Z,20.96
2018-02-21T13:59:20.679Z,20.87
2018-02-21T14:01:50.373Z,21.03
2018-02-21T14:04:19.514Z,21.04
2018-02-21T14:06:48.879Z,20.87
2018-02-21T14:11:20.686Z,20.91
2018-02-21T14:13:49.670Z,20.85
2018-02-21T14:16:18.807Z,20.81
2018-02-21T14:18:47.637Z,20.96
2018-02-21T14:26:20.719Z,21.05
2018-02-21T14:28:49.777Z,21.06
2018-02-21T14:31:18.771Z,21.05
2018-02-21T14:33:47.824Z,21.04
2018-02-21T14:36:16.776Z,21.05
2018-02-21T14:38:45.768Z,21.12
2018-02-21T14:41:15.496Z,20.95
2018-02-21T14:43:44.723Z,20.95
2018-02-21T14:46:13.695Z,20.89
2018-02-21T14:48:42.675Z,20.93
2018-02-21T14:51:11.700Z,20.77
2018-02-21T14:53:41.213Z,20.64
2018-02-21T14:56:10.341Z,20.64
2018-02-21T14:58:39.297Z,20.74
2018-02-21T15:01:08.787Z,20.78
2018-02-21T15:03:37.887Z,20.75
2018-02-21T15:06:06.555Z,20.82
2018-02-21T15:08:35.679Z,20.75
2018-02-21T15:11:04.663Z,20.65
2018-02-21T15:13:33.693Z,20.74
2018-02-21T15:16:02.650Z,20.74
2018-02-21T15:18:31.628Z,20.75
2018-02-21T15:21:00.685Z,20.77
2018-02-21T15:23:58.676Z,20.85
2018-02-21T15:26:27.588Z,20.90
2018-02-21T15:28:56.879Z,20.78
2018-02-21T15:31:25.773Z,20.85
2018-02-21T15:33:54.680Z,20.87
2018-02-21T15:36:23.679Z,20.91
2018-02-21T15:38:52.614Z,20.95
2018-02-21T15:41:21.994Z,20.83
2018-02-21T15:43:50.920Z,20.78
2018-02-21T15:46:19.146Z,20.79
2018-02-21T15:48:48.355Z,20.67
2018-02-21T15:51:17.532Z,20.60
2018-02-21T15:53:46.416Z,20.58
2018-02-21T15:56:15.750Z,20.57
2018-02-21T15:58:44.843Z,20.52
2018-02-21T16:01:14.525Z,20.55
2018-02-21T16:03:43.885Z,20.50
2018-02-21T16:06:13.150Z,20.50
2018-02-21T16:08:41.848Z,20.50
2018-02-21T16:11:10.878Z,20.52
2018-02-21T16:13:39.139Z,20.57
2018-02-21T16:16:08.479Z,20.53
2018-02-21T16:18:37.570Z,20.48
2018-02-21T16:21:06.732Z,20.47
2018-02-21T16:23:35.780Z,20.48
2018-02-21T16:26:05.585Z,20.51
2018-02-21T16:28:34.631Z,20.53
2018-02-21T16:32:36.820Z,20.57
2018-02-21T16:35:05.733Z,20.65
2018-02-21T16:37:34.836Z,20.71
2018-02-21T16:40:03.765Z,20.74
2018-02-21T16:43:09.679Z,20.95
2018-02-21T16:48:12.621Z,20.99
2018-02-21T16:50:42.648Z,20.67
2018-02-21T16:53:11.741Z,20.60
2018-02-21T16:55:40.759Z,20.58
2018-02-21T16:58:09.717Z,20.57
2018-02-21T17:00:38.872Z,20.85
2018-02-21T17:03:07.792Z,20.91
2018-02-21T17:05:36.680Z,20.74
2018-02-21T17:08:05.731Z,20.69
2018-02-21T17:10:34.880Z,20.68
2018-02-21T17:13:03.671Z,20.64
2018-02-21T17:15:32.599Z,20.60
2018-02-21T17:18:01.685Z,20.60
2018-02-21T17:20:30.832Z,20.54
2018-02-21T17:22:59.625Z,20.53
2018-02-21T17:25:28.684Z,20.53
2018-02-21T17:27:57.806Z,20.59
2018-02-21T17:30:26.884Z,20.66
2018-02-21T17:32:56.239Z,20.69
2018-02-21T17:35:26.505Z,20.75
2018-02-21T17:37:55.614Z,20.77
2018-02-21T17:40:24.640Z,20.75
2018-02-21T17:42:53.761Z,20.73
2018-02-21T17:45:22.672Z,20.69
2018-02-21T17:47:51.803Z,20.69
2018-02-21T17:50:20.843Z,20.67
2018-02-21T17:52:49.692Z,20.64
2018-02-21T17:55:18.611Z,20.65
2018-02-21T17:57:47.758Z,20.61
2018-02-21T18:00:16.766Z,20.57
2018-02-21T18:02:45.664Z,20.54
2018-02-21T18:05:14.637Z,20.52
2018-02-21T18:07:43.673Z,20.50
2018-02-21T18:10:12.951Z,20.54
2018-02-21T18:12:41.160Z,20.54
2018-02-21T18:15:09.852Z,20.56
2018-02-21T18:17:38.803Z,20.63
2018-02-21T18:20:08.261Z,20.88
2018-02-21T18:22:37.516Z,20.79
2018-02-21T18:25:06.630Z,20.50
2018-02-21T18:27:35.891Z,20.48
2018-02-21T18:30:04.040Z,20.52
2018-02-21T18:33:32.509Z,20.57
2018-02-21T18:36:01.756Z,20.62
2018-02-21T18:38:30.716Z,20.71
2018-02-21T18:40:59.812Z,20.79
2018-02-21T18:45:06.626Z,21.19
2018-02-21T18:47:35.720Z,20.85
2018-02-21T18:50:04.643Z,20.75
2018-02-21T18:52:33.657Z,20.77
2018-02-21T18:55:02.592Z,20.66
2018-02-21T18:57:31.688Z,20.61
2018-02-21T19:00:00.728Z,20.59
2018-02-21T19:02:29.663Z,20.55
2018-02-21T19:06:27.677Z,20.53
2018-02-21T19:08:56.752Z,20.57
2018-02-21T19:11:25.684Z,20.56
2018-02-21T19:16:11.495Z,20.55
2018-02-21T19:18:40.680Z,20.48
2018-02-21T19:21:09.752Z,20.47
2018-02-21T19:26:25.580Z,20.45
2018-02-21T19:28:54.560Z,20.46
2018-02-21T19:31:23.712Z,20.50
2018-02-21T19:33:52.716Z,20.54
2018-02-21T19:37:58.539Z,20.68
2018-02-21T19:40:27.661Z,20.71
2018-02-21T19:42:56.681Z,20.72
2018-02-21T19:45:25.610Z,20.76
2018-02-21T19:47:54.604Z,20.77
2018-02-21T19:50:23.744Z,20.75
2018-02-21T19:52:52.800Z,20.72
2018-02-21T19:55:21.706Z,20.67
2018-02-21T19:57:50.767Z,20.62
2018-02-21T20:00:19.692Z,20.60
2018-02-21T20:02:48.678Z,20.64
2018-02-21T20:05:17.635Z,20.64
2018-02-21T20:07:46.673Z,20.63
2018-02-21T20:10:16.763Z,20.63
2018-02-21T20:13:36.640Z,20.60
2018-02-21T20:16:05.790Z,20.56
2018-02-21T20:18:34.699Z,20.56
2018-02-21T20:21:04.218Z,20.52
2018-02-21T20:23:33.595Z,20.53
2018-02-21T20:26:02.687Z,20.53
2018-02-21T20:28:32.176Z,20.54
2018-02-21T20:31:01.263Z,20.62
2018-02-21T20:33:30.468Z,20.76
2018-02-21T20:38:02.608Z,20.84
2018-02-21T20:40:31.657Z,20.83
2018-02-21T20:45:17.704Z,20.84
2018-02-21T20:47:46.756Z,20.84
2018-02-21T20:50:15.758Z,20.87
2018-02-21T20:52:44.684Z,20.90
2018-02-21T20:55:13.791Z,20.91
2018-02-21T20:57:42.725Z,20.87
2018-02-21T21:00:11.795Z,20.85
2018-02-21T21:02:40.771Z,20.77
2018-02-21T21:05:09.692Z,20.72
2018-02-21T21:07:38.751Z,20.68
2018-02-21T21:10:07.703Z,20.68
2018-02-21T21:13:46.572Z,20.55
2018-02-21T21:16:15.756Z,20.58
2018-02-21T21:20:57.693Z,20.65
2018-02-21T21:23:26.700Z,20.67
2018-02-21T21:25:55.707Z,20.67
2018-02-21T21:28:24.955Z,20.66
2018-02-21T21:30:53.560Z,20.60
2018-02-21T21:33:23.587Z,20.59
2018-02-21T21:35:52.684Z,20.63
2018-02-21T21:38:21.876Z,20.68
2018-02-21T21:42:16.736Z,20.76
2018-02-21T21:44:45.880Z,20.80
2018-02-21T21:51:23.436Z,20.84
2018-02-21T21:53:52.692Z,20.81
2018-02-21T21:59:07.488Z,20.52
2018-02-21T22:01:36.787Z,20.47
2018-02-21T22:04:05.752Z,20.44
2018-02-21T22:06:34.706Z,20.44
2018-02-21T22:09:03.588Z,20.41
2018-02-21T22:11:32.742Z,20.42
2018-02-21T22:14:01.613Z,20.49
2018-02-21T22:16:30.739Z,20.51
2018-02-21T22:18:59.663Z,20.54
2018-02-21T22:21:28.616Z,20.52
2018-02-21T22:23:57.684Z,20.51
2018-02-21T22:26:26.607Z,20.47
2018-02-21T22:28:55.645Z,20.47
2018-02-21T22:31:24.691Z,20.43
2018-02-21T22:33:53.698Z,20.40
2018-02-21T22:36:22.716Z,20.37
2018-02-21T22:38:51.727Z,20.40
2018-02-21T22:41:20.892Z,20.48
2018-02-21T22:43:49.536Z,20.53
2018-02-21T22:46:18.620Z,20.57
2018-02-21T22:48:47.592Z,20.58
2018-02-21T22:51:16.752Z,20.57
2018-02-21T22:53:45.779Z,20.55
2018-02-21T22:56:14.664Z,20.52
2018-02-21T22:58:43.639Z,20.44
2018-02-21T23:01:12.607Z,20.42
2018-02-21T23:03:41.696Z,20.39
2018-02-21T23:06:10.799Z,20.37
2018-02-21T23:08:39.677Z,20.38
2018-02-21T23:11:08.676Z,20.38
2018-02-21T23:13:37.783Z,20.41
2018-02-21T23:16:06.752Z,20.42
2018-02-21T23:18:35.640Z,20.37
2018-02-21T23:21:04.752Z,20.34
2018-02-21T23:23:33.684Z,20.33
2018-02-21T23:26:02.672Z,20.33
2018-02-21T23:28:31.689Z,20.35
2018-02-21T23:31:01.064Z,20.39
2018-02-21T23:33:29.630Z,20.36
2018-02-21T23:35:58.634Z,20.41
2018-02-21T23:38:27.712Z,20.38
2018-02-21T23:40:56.751Z,20.42
2018-02-21T23:43:25.651Z,20.43
2018-02-21T23:45:54.655Z,20.44
2018-02-21T23:48:23.668Z,20.44
2018-02-21T23:50:52.663Z,20.46
2018-02-21T23:53:21.634Z,20.49
2018-02-21T23:55:50.652Z,20.50
2018-02-21T23:58:19.660Z,20.51
